Terminal Aerodrome Forecast
Issued by NWS Wichita, KS

Home | Current Version | Previous Version | Text Only | Print | Product List | Glossary On
Versions: 1 2 3 4 5 6 7 8 9 10 11 12 13 14 15 16
000
FTUS43 KICT 310816 AAB
TAFICT
TAF AMD
KICT 310816Z 3108/0106 14005KT 4SM BR SCT012
      TEMPO 3110/3113 1SM BR
     FM311500 16011KT P6SM FEW035=

USA.gov is the U.S. government's official web portal to all federal, state and local government web resources and services.